Time;durP1;ratioP1;P1;durP2;ratioP2;P2;SDS_P1;SDS_P2;PMS_P1;PMS_P2;Temp;Humidity;BMP_temperature;BMP_pressure;BME280_temperature;BME280_humidity;BME280_pressure;Samples;Min_cycle;Max_cycle;Signal;HPM_P1;HPM_P2
2023/05/15 00:01:20;;;;;;;7.83;7.23;;;;;;;;;;4983091;28;20229;-82
2023/05/15 00:03:48;;;;;;;8.23;7.43;;;;;;;;;;5012673;28;20232;-82
2023/05/15 00:06:14;;;;;;;7.43;6.83;;;;;;;;;;5037556;28;20230;-83
2023/05/15 00:08:39;;;;;;;7.57;6.90;;;;;;;;;;5021972;28;20263;-83
2023/05/15 00:11:05;;;;;;;7.97;7.37;;;;;;;;;;5020329;28;20296;-82
2023/05/15 00:13:33;;;;;;;9.47;7.30;;;;;;;;;;5021308;28;20204;-83
2023/05/15 00:15:58;;;;;;;7.67;7.07;;;;;;;;;;4980519;28;20232;-83
2023/05/15 00:18:26;;;;;;;8.17;7.47;;;;;;;;;;5033574;28;20319;-82
2023/05/15 00:20:54;;;;;;;8.37;7.67;;;;;;;;;;5016091;28;20216;-83
2023/05/15 00:23:22;;;;;;;8.50;7.80;;;;;;;;;;5031662;28;20212;-83
2023/05/15 00:25:51;;;;;;;8.20;7.53;;;;;;;;;;5017466;28;20255;-83
2023/05/15 00:28:16;;;;;;;9.30;7.47;;;;;;;;;;5016994;28;20224;-83
2023/05/15 00:30:42;;;;;;;7.47;6.87;;;;;;;;;;5018187;28;20225;-83
2023/05/15 00:33:07;;;;;;;7.80;7.20;;;;;;;;;;5033701;28;20236;-83
2023/05/15 00:35:33;;;;;;;8.00;7.30;;;;;;;;;;5007130;28;20227;-83
2023/05/15 00:37:58;;;;;;;8.63;7.97;;;;;;;;;;5034719;28;20209;-83
2023/05/15 00:40:24;;;;;;;9.10;8.40;;;;;;;;;;5020274;28;20203;-83
2023/05/15 00:42:51;;;;;;;8.50;7.80;;;;;;;;;;5034211;28;20212;-82
2023/05/15 00:45:19;;;;;;;8.70;7.93;;;;;;;;;;5035698;28;20215;-83
2023/05/15 00:47:46;;;;;;;8.70;8.00;;;;;;;;;;5035140;28;20443;-82
2023/05/15 00:50:14;;;;;;;8.67;7.83;;;;;;;;;;5035203;28;20285;-82
2023/05/15 00:52:40;;;;;;;9.00;8.10;;;;;;;;;;5003169;28;20308;-82
2023/05/15 00:55:06;;;;;;;8.73;7.93;;;;;;;;;;5002159;28;20209;-82
2023/05/15 00:57:31;;;;;;;9.23;8.53;;;;;;;;;;5018642;28;20673;-82
2023/05/15 00:59:57;;;;;;;9.33;8.53;;;;;;;;;;5019102;28;20318;-82
2023/05/15 01:02:25;;;;;;;9.30;8.50;;;;;;;;;;5018441;28;20247;-83
2023/05/15 01:04:51;;;;;;;9.00;8.30;;;;;;;;;;4987916;28;20224;-83
2023/05/15 01:07:19;;;;;;;8.73;7.93;;;;;;;;;;5013260;28;20224;-83
2023/05/15 01:09:47;;;;;;;8.57;7.80;;;;;;;;;;4989419;28;20225;-84
2023/05/15 01:12:13;;;;;;;8.23;7.53;;;;;;;;;;4972410;28;20235;-83
2023/05/15 01:14:39;;;;;;;8.40;7.60;;;;;;;;;;4976825;28;20230;-83
2023/05/15 01:17:05;;;;;;;8.47;7.77;;;;;;;;;;4970395;28;20232;-83
2023/05/15 01:19:33;;;;;;;8.03;7.43;;;;;;;;;;5012546;28;20245;-83
2023/05/15 01:22:25;;;;;;;8.43;7.60;;;;;;;;;;5021349;28;20263;-83
2023/05/15 01:25:11;;;;;;;8.13;7.53;;;;;;;;;;5026197;28;20235;-83
2023/05/15 01:27:55;;;;;;;8.73;7.93;;;;;;;;;;5024416;28;20223;-83
2023/05/15 01:30:27;;;;;;;8.67;8.07;;;;;;;;;;5003570;28;20229;-82
2023/05/15 01:33:00;;;;;;;8.90;8.10;;;;;;;;;;5020487;28;20713;-83
2023/05/15 01:35:30;;;;;;;8.10;7.43;;;;;;;;;;5003562;28;20228;-83
2023/05/15 01:38:41;;;;;;;8.93;8.20;;;;;;;;;;5003796;28;20232;-83
2023/05/15 01:41:14;;;;;;;9.13;8.43;;;;;;;;;;4960866;28;20235;-83
2023/05/15 01:43:42;;;;;;;8.63;7.93;;;;;;;;;;5012642;28;20594;-83
2023/05/15 01:46:10;;;;;;;8.90;8.13;;;;;;;;;;5006888;28;20224;-83
2023/05/15 01:48:36;;;;;;;8.97;8.17;;;;;;;;;;4978949;28;20228;-83
2023/05/15 01:51:05;;;;;;;8.90;8.17;;;;;;;;;;5004024;28;20239;-83
2023/05/15 01:53:34;;;;;;;9.37;8.57;;;;;;;;;;5023555;28;20712;-83
2023/05/15 01:56:04;;;;;;;9.37;8.50;;;;;;;;;;5011553;28;20224;-83
2023/05/15 01:58:30;;;;;;;9.83;8.90;;;;;;;;;;5017732;28;20239;-82
2023/05/15 02:00:57;;;;;;;9.33;8.63;;;;;;;;;;5035962;28;20293;-83
2023/05/15 02:03:23;;;;;;;9.57;8.77;;;;;;;;;;5014382;28;20252;-83
2023/05/15 02:05:52;;;;;;;9.30;8.60;;;;;;;;;;5029836;28;20222;-82
2023/05/15 02:08:18;;;;;;;9.30;8.50;;;;;;;;;;5017369;28;20442;-83
2023/05/15 02:10:43;;;;;;;9.00;8.20;;;;;;;;;;5001942;28;20231;-82
2023/05/15 02:13:12;;;;;;;8.80;8.10;;;;;;;;;;4999469;28;20292;-82
2023/05/15 02:15:40;;;;;;;9.00;8.23;;;;;;;;;;5001663;28;20220;-82
2023/05/15 02:18:06;;;;;;;8.87;7.90;;;;;;;;;;5016363;28;20219;-82
2023/05/15 02:20:31;;;;;;;8.60;7.80;;;;;;;;;;5014452;28;20366;-83
2023/05/15 02:22:59;;;;;;;8.57;7.87;;;;;;;;;;4989975;28;20252;-83
2023/05/15 02:25:34;;;;;;;8.73;7.93;;;;;;;;;;4984174;28;20249;-83
2023/05/15 02:27:59;;;;;;;8.93;8.20;;;;;;;;;;5002623;28;20255;-82
2023/05/15 02:30:34;;;;;;;8.73;7.93;;;;;;;;;;4998154;28;20216;-83
2023/05/15 02:33:11;;;;;;;8.63;8.03;;;;;;;;;;5006777;28;20235;-83
2023/05/15 02:35:51;;;;;;;8.77;8.07;;;;;;;;;;5039535;28;20246;-84
2023/05/15 02:38:19;;;;;;;8.23;7.53;;;;;;;;;;5005828;28;20775;-83
2023/05/15 02:40:45;;;;;;;8.73;8.03;;;;;;;;;;4988047;28;20698;-83
2023/05/15 02:43:10;;;;;;;8.63;7.93;;;;;;;;;;4989035;28;20258;-83
2023/05/15 02:45:38;;;;;;;8.63;7.93;;;;;;;;;;5000501;28;20331;-83
2023/05/15 02:48:05;;;;;;;8.87;8.07;;;;;;;;;;5003523;28;20705;-83
2023/05/15 02:50:30;;;;;;;8.37;7.73;;;;;;;;;;4999078;28;20279;-82
2023/05/15 02:53:06;;;;;;;8.53;7.80;;;;;;;;;;5023586;28;20232;-83
2023/05/15 02:55:35;;;;;;;8.27;7.67;;;;;;;;;;4997927;28;20223;-82
2023/05/15 02:58:01;;;;;;;8.73;8.03;;;;;;;;;;5004264;28;20315;-83
2023/05/15 03:00:27;;;;;;;9.53;8.17;;;;;;;;;;4964500;28;20251;-83
2023/05/15 03:02:52;;;;;;;8.70;8.00;;;;;;;;;;4990386;28;20236;-83
2023/05/15 03:05:18;;;;;;;8.53;7.83;;;;;;;;;;5000198;28;20224;-83
2023/05/15 03:07:46;;;;;;;8.83;8.13;;;;;;;;;;5002298;28;20243;-83
2023/05/15 03:10:11;;;;;;;8.17;7.57;;;;;;;;;;5010120;28;20224;-83
2023/05/15 03:12:37;;;;;;;8.47;7.77;;;;;;;;;;5019309;28;20216;-83
2023/05/15 03:15:04;;;;;;;9.10;8.30;;;;;;;;;;5021036;28;20231;-82
2023/05/15 03:17:29;;;;;;;8.70;8.00;;;;;;;;;;5004477;28;20238;-83
2023/05/15 03:19:57;;;;;;;8.63;7.90;;;;;;;;;;4990318;28;20216;-82
2023/05/15 03:22:23;;;;;;;9.00;8.20;;;;;;;;;;5002141;28;20251;-83
2023/05/15 03:24:48;;;;;;;8.10;7.40;;;;;;;;;;5009521;28;20224;-81
2023/05/15 03:27:14;;;;;;;8.20;7.50;;;;;;;;;;5027411;28;20227;-81
2023/05/15 03:29:43;;;;;;;8.30;7.67;;;;;;;;;;5020670;28;20213;-83
2023/05/15 03:32:09;;;;;;;8.53;7.83;;;;;;;;;;5034116;28;20227;-82
2023/05/15 03:34:37;;;;;;;8.57;7.87;;;;;;;;;;4992425;28;20221;-83
2023/05/15 03:37:05;;;;;;;8.70;8.00;;;;;;;;;;4991748;28;20239;-82
2023/05/15 03:39:30;;;;;;;8.80;8.10;;;;;;;;;;5024503;28;20228;-83
2023/05/15 03:41:58;;;;;;;9.10;8.20;;;;;;;;;;5020359;28;20375;-83
2023/05/15 03:44:28;;;;;;;9.13;8.33;;;;;;;;;;5027254;28;20225;-82
2023/05/15 03:46:54;;;;;;;9.13;8.40;;;;;;;;;;5010896;28;20296;-83
2023/05/15 03:49:19;;;;;;;9.07;8.30;;;;;;;;;;4998250;28;20277;-82
2023/05/15 03:51:47;;;;;;;9.13;8.33;;;;;;;;;;5012733;28;20212;-83
2023/05/15 03:54:13;;;;;;;8.97;8.23;;;;;;;;;;5001664;28;20237;-83
2023/05/15 03:56:38;;;;;;;9.27;8.57;;;;;;;;;;4979820;28;20220;-83
2023/05/15 03:59:04;;;;;;;9.03;8.30;;;;;;;;;;5009627;28;20227;-83
2023/05/15 04:01:29;;;;;;;9.00;8.30;;;;;;;;;;5004243;28;20317;-84
2023/05/15 04:03:54;;;;;;;9.00;8.20;;;;;;;;;;4979400;28;20547;-84
2023/05/15 04:06:21;;;;;;;8.60;7.90;;;;;;;;;;4991023;28;20250;-83
2023/05/15 04:08:48;;;;;;;8.47;7.77;;;;;;;;;;5004391;28;20407;-83
2023/05/15 04:11:16;;;;;;;7.93;7.07;;;;;;;;;;4989823;28;20589;-81
2023/05/15 04:13:42;;;;;;;8.17;7.53;;;;;;;;;;4988293;28;20288;-82
2023/05/15 04:16:08;;;;;;;8.00;7.40;;;;;;;;;;5003957;28;20227;-82
2023/05/15 04:18:34;;;;;;;8.47;7.67;;;;;;;;;;5012323;28;20226;-83
2023/05/15 04:20:59;;;;;;;8.97;8.17;;;;;;;;;;5006165;28;20228;-82
2023/05/15 04:23:25;;;;;;;8.10;7.40;;;;;;;;;;5000371;28;20239;-83
2023/05/15 04:25:53;;;;;;;8.53;7.83;;;;;;;;;;4984659;28;20226;-80
2023/05/15 04:28:21;;;;;;;8.97;8.07;;;;;;;;;;4964046;28;20238;-82
2023/05/15 04:30:47;;;;;;;8.23;7.53;;;;;;;;;;5011442;28;20220;-81
2023/05/15 04:33:15;;;;;;;8.80;8.10;;;;;;;;;;4997487;28;20216;-82
2023/05/15 04:35:40;;;;;;;8.53;7.73;;;;;;;;;;4979708;28;20250;-81
2023/05/15 04:38:06;;;;;;;8.03;7.33;;;;;;;;;;5004845;28;20236;-82
2023/05/15 04:40:33;;;;;;;8.53;7.83;;;;;;;;;;5031930;28;20225;-78
2023/05/15 04:43:36;;;;;;;7.97;7.27;;;;;;;;;;4999138;28;20228;-77
2023/05/15 04:46:04;;;;;;;8.47;7.83;;;;;;;;;;5018910;28;20279;-79
2023/05/15 04:48:30;;;;;;;9.63;8.83;;;;;;;;;;5017081;28;20247;-79
2023/05/15 04:50:56;;;;;;;17.93;16.20;;;;;;;;;;5007597;28;20255;-80
2023/05/15 04:53:21;;;;;;;21.90;19.70;;;;;;;;;;5007239;28;20243;-80
2023/05/15 04:55:50;;;;;;;17.50;15.70;;;;;;;;;;4987881;28;20216;-80
2023/05/15 04:58:16;;;;;;;13.13;11.77;;;;;;;;;;5003328;28;20284;-80
2023/05/15 05:00:44;;;;;;;9.00;8.27;;;;;;;;;;5016697;28;20236;-79
2023/05/15 05:03:10;;;;;;;8.23;7.43;;;;;;;;;;4986772;28;20320;-79
2023/05/15 05:06:00;;;;;;;8.80;8.10;;;;;;;;;;5002175;28;20220;-80
2023/05/15 05:08:30;;;;;;;8.00;7.30;;;;;;;;;;5019611;28;20224;-80
2023/05/15 05:10:56;;;;;;;8.27;7.47;;;;;;;;;;4999013;28;20779;-81
2023/05/15 05:13:21;;;;;;;7.27;6.70;;;;;;;;;;5020371;28;20755;-80
2023/05/15 05:15:47;;;;;;;7.70;7.00;;;;;;;;;;5018978;28;20224;-80
2023/05/15 05:18:13;;;;;;;9.75;7.32;;;;;;;;;;4984620;28;20220;-84
2023/05/15 05:20:39;;;;;;;7.70;6.93;;;;;;;;;;4993403;28;20216;-82
2023/05/15 05:23:04;;;;;;;7.45;6.75;;;;;;;;;;5003192;28;20694;-83
2023/05/15 05:25:32;;;;;;;7.30;6.70;;;;;;;;;;4993773;28;20279;-82
2023/05/15 05:27:58;;;;;;;6.68;6.07;;;;;;;;;;4974695;28;20231;-82
2023/05/15 05:30:26;;;;;;;6.78;6.28;;;;;;;;;;4991190;28;20217;-80
2023/05/15 05:32:54;;;;;;;6.50;5.95;;;;;;;;;;5002608;28;20232;-81
2023/05/15 05:35:22;;;;;;;6.60;6.00;;;;;;;;;;5024189;28;20212;-83
2023/05/15 05:37:47;;;;;;;6.28;5.78;;;;;;;;;;5006377;28;20226;-81
2023/05/15 05:40:13;;;;;;;6.45;5.85;;;;;;;;;;4974267;28;20208;-80
2023/05/15 05:42:38;;;;;;;6.10;5.60;;;;;;;;;;5004681;23;20235;-76
2023/05/15 05:45:07;;;;;;;6.65;6.10;;;;;;;;;;4987717;28;20547;-77
2023/05/15 05:47:35;;;;;;;6.22;5.72;;;;;;;;;;4991840;28;20304;-77
2023/05/15 05:50:03;;;;;;;6.18;5.68;;;;;;;;;;4975942;28;20600;-76
2023/05/15 05:52:31;;;;;;;5.88;5.43;;;;;;;;;;5004373;28;20772;-76
2023/05/15 05:54:56;;;;;;;6.00;5.50;;;;;;;;;;5020857;28;20281;-76
2023/05/15 05:57:22;;;;;;;5.38;4.95;;;;;;;;;;4989374;28;22291;-76
2023/05/15 05:59:50;;;;;;;6.05;5.43;;;;;;;;;;5026482;28;20235;-76
2023/05/15 06:02:15;;;;;;;5.15;4.75;;;;;;;;;;5004208;28;20774;-76
2023/05/15 06:04:43;;;;;;;5.40;4.90;;;;;;;;;;4987130;28;20223;-75
2023/05/15 06:07:13;;;;;;;5.25;4.75;;;;;;;;;;5002922;28;20318;-76
2023/05/15 06:09:44;;;;;;;5.20;4.70;;;;;;;;;;5020376;28;20462;-76
2023/05/15 06:12:10;;;;;;;4.47;4.05;;;;;;;;;;5003468;28;20728;-76
2023/05/15 06:14:35;;;;;;;5.00;4.50;;;;;;;;;;5045839;22;20226;-82
2023/05/15 06:17:01;;;;;;;4.70;4.30;;;;;;;;;;4995433;28;20233;-82
2023/05/15 06:19:27;;;;;;;4.55;4.22;;;;;;;;;;5004589;28;20288;-82
2023/05/15 06:21:53;;;;;;;4.57;4.18;;;;;;;;;;4999444;28;20239;-80
2023/05/15 06:24:19;;;;;;;4.63;4.20;;;;;;;;;;5031393;28;20224;-80
2023/05/15 06:26:44;;;;;;;4.00;3.70;;;;;;;;;;5010179;28;20226;-80
2023/05/15 06:29:10;;;;;;;4.10;3.80;;;;;;;;;;5040559;28;20219;-81
2023/05/15 06:31:38;;;;;;;3.80;3.47;;;;;;;;;;4999133;28;20228;-82
2023/05/15 06:34:06;;;;;;;3.72;3.40;;;;;;;;;;5036563;28;20223;-80
2023/05/15 06:36:34;;;;;;;5.15;4.65;;;;;;;;;;5009596;28;20227;-83
2023/05/15 06:39:02;;;;;;;4.68;4.25;;;;;;;;;;5042646;28;20250;-80
2023/05/15 06:41:27;;;;;;;5.18;4.13;;;;;;;;;;5022687;28;20238;-81
2023/05/15 06:43:54;;;;;;;4.88;4.20;;;;;;;;;;5010655;28;20244;-82
2023/05/15 06:46:20;;;;;;;4.90;4.55;;;;;;;;;;5009575;28;20224;-82
2023/05/15 06:48:46;;;;;;;4.30;3.90;;;;;;;;;;5021949;28;20230;-81
2023/05/15 06:51:11;;;;;;;4.40;4.00;;;;;;;;;;5009657;28;20306;-79
2023/05/15 06:53:37;;;;;;;4.25;3.95;;;;;;;;;;5007302;28;20223;-80
2023/05/15 06:56:02;;;;;;;5.60;3.15;;;;;;;;;;5006218;28;20231;-80
2023/05/15 06:58:31;;;;;;;3.03;2.60;;;;;;;;;;5025244;28;20286;-80
2023/05/15 07:00:56;;;;;;;3.03;2.72;;;;;;;;;;5009781;28;20549;-81
2023/05/15 07:03:22;;;;;;;3.30;3.00;;;;;;;;;;5027551;28;21221;-82
2023/05/15 07:05:47;;;;;;;3.08;2.72;;;;;;;;;;5012260;28;21102;-82
2023/05/15 07:08:13;;;;;;;3.05;2.80;;;;;;;;;;5002847;28;20224;-77
2023/05/15 07:10:41;;;;;;;3.15;2.90;;;;;;;;;;5019784;28;20212;-79
2023/05/15 07:13:06;;;;;;;3.22;2.92;;;;;;;;;;5013845;28;20227;-85
2023/05/15 07:15:32;;;;;;;3.95;3.15;;;;;;;;;;5000818;28;20246;-82
2023/05/15 07:17:57;;;;;;;3.00;2.80;;;;;;;;;;4999622;28;20850;-79
2023/05/15 07:20:25;;;;;;;3.47;3.03;;;;;;;;;;4977779;28;20212;-80
2023/05/15 07:22:51;;;;;;;3.28;2.97;;;;;;;;;;5012329;28;20247;-80
2023/05/15 07:25:22;;;;;;;3.65;3.35;;;;;;;;;;5008814;28;20216;-81
2023/05/15 07:27:47;;;;;;;3.95;2.97;;;;;;;;;;4994634;28;20234;-83
2023/05/15 07:30:13;;;;;;;3.15;2.85;;;;;;;;;;5023242;28;20220;-79
2023/05/15 07:32:38;;;;;;;3.60;2.85;;;;;;;;;;4990685;28;20855;-81
2023/05/15 07:35:05;;;;;;;3.30;3.00;;;;;;;;;;4992640;28;20357;-81
2023/05/15 07:37:30;;;;;;;3.08;2.88;;;;;;;;;;4991225;28;20239;-79
2023/05/15 07:39:56;;;;;;;3.72;3.30;;;;;;;;;;5021213;28;20224;-82
2023/05/15 07:42:21;;;;;;;3.53;3.22;;;;;;;;;;5007085;28;20228;-80
2023/05/15 07:44:49;;;;;;;3.42;3.22;;;;;;;;;;5024430;28;20224;-84
2023/05/15 07:47:15;;;;;;;2.88;2.55;;;;;;;;;;5026158;28;20255;-84
2023/05/15 07:49:41;;;;;;;2.72;2.53;;;;;;;;;;4986730;28;20302;-80
2023/05/15 07:52:06;;;;;;;2.70;2.50;;;;;;;;;;4991770;28;20212;-80
2023/05/15 07:54:34;;;;;;;3.10;2.90;;;;;;;;;;4989309;28;20927;-80
2023/05/15 07:57:00;;;;;;;3.10;2.80;;;;;;;;;;5008904;28;20711;-82
2023/05/15 07:59:26;;;;;;;3.55;2.97;;;;;;;;;;4976907;28;20226;-81
2023/05/15 08:01:51;;;;;;;3.20;3.00;;;;;;;;;;4991196;28;20798;-82
2023/05/15 08:04:17;;;;;;;3.30;3.00;;;;;;;;;;4989589;28;20726;-78
2023/05/15 08:06:42;;;;;;;3.22;2.90;;;;;;;;;;5008152;28;20239;-81
2023/05/15 08:09:11;;;;;;;3.30;2.85;;;;;;;;;;4992372;28;20297;-81
2023/05/15 08:11:37;;;;;;;3.90;2.80;;;;;;;;;;5004995;28;20327;-80
2023/05/15 08:14:04;;;;;;;4.03;2.85;;;;;;;;;;4973559;28;20220;-81
2023/05/15 08:16:30;;;;;;;3.15;2.85;;;;;;;;;;4991072;28;20235;-83
2023/05/15 08:19:00;;;;;;;3.03;2.78;;;;;;;;;;4991338;28;20215;-80
2023/05/15 08:21:26;;;;;;;3.05;2.78;;;;;;;;;;5007065;28;20239;-81
2023/05/15 08:23:52;;;;;;;3.38;2.90;;;;;;;;;;5007095;28;20294;-82
2023/05/15 08:26:17;;;;;;;3.10;2.85;;;;;;;;;;5010721;28;20224;-81
2023/05/15 08:28:43;;;;;;;3.00;2.80;;;;;;;;;;5010750;28;20223;-82
2023/05/15 08:31:08;;;;;;;3.47;3.15;;;;;;;;;;4992894;28;20251;-81
2023/05/15 08:33:34;;;;;;;2.97;2.78;;;;;;;;;;5010577;28;21419;-81
2023/05/15 08:36:00;;;;;;;3.20;2.90;;;;;;;;;;5009446;28;20251;-77
2023/05/15 08:38:28;;;;;;;3.42;3.00;;;;;;;;;;5004721;28;20216;-81
2023/05/15 08:40:57;;;;;;;3.20;2.90;;;;;;;;;;4991624;28;20216;-81
2023/05/15 08:43:23;;;;;;;4.28;3.00;;;;;;;;;;5005351;28;20278;-81
2023/05/15 08:45:58;;;;;;;4.45;2.80;;;;;;;;;;5004174;28;20776;-81
2023/05/15 08:48:24;;;;;;;4.15;3.00;;;;;;;;;;4990158;28;20235;-81
2023/05/15 08:50:50;;;;;;;3.25;3.05;;;;;;;;;;5007873;28;20208;-81
2023/05/15 08:53:16;;;;;;;3.50;3.20;;;;;;;;;;5006474;28;20227;-82
2023/05/15 08:58:24;;;;;;;3.20;2.90;;;;;;;;;;5021451;22;20224;-84
2023/05/15 09:00:53;;;;;;;3.47;3.17;;;;;;;;;;5010891;28;20231;-79
2023/05/15 09:03:21;;;;;;;3.72;3.40;;;;;;;;;;4976348;28;20217;-80
2023/05/15 09:05:47;;;;;;;3.60;3.20;;;;;;;;;;4975762;28;20226;-82
2023/05/15 09:08:12;;;;;;;3.03;2.83;;;;;;;;;;4974636;28;20213;-82
2023/05/15 09:10:38;;;;;;;3.80;3.28;;;;;;;;;;4984975;28;20219;-79
2023/05/15 09:13:04;;;;;;;4.68;3.15;;;;;;;;;;4986169;28;20233;-80
2023/05/15 09:15:30;;;;;;;3.70;3.40;;;;;;;;;;4983647;28;20227;-80
2023/05/15 09:17:55;;;;;;;4.47;3.30;;;;;;;;;;5024181;28;20230;-80
2023/05/15 09:20:39;;;;;;;3.85;3.30;;;;;;;;;;4982572;28;20782;-80
2023/05/15 09:23:05;;;;;;;3.10;2.80;;;;;;;;;;5001932;28;21036;-79
2023/05/15 09:25:41;;;;;;;3.53;3.22;;;;;;;;;;4972410;28;20296;-79
2023/05/15 09:28:26;;;;;;;3.10;2.80;;;;;;;;;;4992171;28;20220;-79
2023/05/15 09:30:59;;;;;;;4.13;3.17;;;;;;;;;;5000832;28;20227;-82
2023/05/15 09:33:39;;;;;;;3.13;2.92;;;;;;;;;;5007667;28;20258;-79
2023/05/15 09:36:08;;;;;;;3.90;2.58;;;;;;;;;;5020016;28;20218;-79
2023/05/15 09:38:42;;;;;;;2.95;2.70;;;;;;;;;;4968143;28;20204;-80
2023/05/15 09:41:08;;;;;;;2.78;2.50;;;;;;;;;;5007019;28;20222;-79
2023/05/15 09:43:37;;;;;;;2.88;2.65;;;;;;;;;;4990917;28;20220;-80
2023/05/15 09:46:03;;;;;;;2.85;2.58;;;;;;;;;;5013313;28;20209;-80
2023/05/15 09:48:31;;;;;;;3.00;2.70;;;;;;;;;;5007377;28;20227;-80
2023/05/15 09:50:57;;;;;;;3.30;3.00;;;;;;;;;;5010732;28;20356;-83
2023/05/15 09:53:23;;;;;;;3.20;2.90;;;;;;;;;;4992048;28;20232;-82
2023/05/15 09:55:48;;;;;;;3.03;2.83;;;;;;;;;;5017658;28;21025;-79
2023/05/15 09:58:18;;;;;;;3.17;2.70;;;;;;;;;;4987926;28;20227;-85
2023/05/15 10:00:44;;;;;;;4.50;2.80;;;;;;;;;;5024770;28;20235;-85
2023/05/15 10:03:10;;;;;;;2.60;2.40;;;;;;;;;;4992707;28;20225;-79
2023/05/15 10:05:36;;;;;;;3.47;2.83;;;;;;;;;;5015159;28;20216;-83
2023/05/15 10:08:01;;;;;;;3.42;2.75;;;;;;;;;;4981817;28;20599;-82
2023/05/15 10:10:30;;;;;;;3.20;2.80;;;;;;;;;;4980291;28;20228;-83
2023/05/15 10:13:03;;;;;;;2.70;2.50;;;;;;;;;;5031462;23;20219;-76
2023/05/15 10:15:29;;;;;;;3.00;2.70;;;;;;;;;;5032336;28;20234;-76
2023/05/15 10:17:57;;;;;;;2.55;2.35;;;;;;;;;;4994550;28;21120;-75
2023/05/15 10:20:27;;;;;;;2.78;2.50;;;;;;;;;;5026989;28;21262;-76
2023/05/15 10:22:55;;;;;;;2.63;2.42;;;;;;;;;;5010222;28;20231;-75
2023/05/15 10:25:35;;;;;;;2.60;2.40;;;;;;;;;;5007772;28;20555;-75
2023/05/15 10:28:01;;;;;;;4.47;2.60;;;;;;;;;;5027621;28;20334;-74
2023/05/15 10:30:30;;;;;;;2.70;2.42;;;;;;;;;;5010423;28;20663;-76
2023/05/15 10:32:58;;;;;;;3.88;2.55;;;;;;;;;;5011195;28;20281;-74
2023/05/15 10:35:24;;;;;;;2.30;2.08;;;;;;;;;;4993018;28;20933;-75
2023/05/15 10:37:52;;;;;;;2.67;2.47;;;;;;;;;;5011186;28;20834;-72
2023/05/15 10:40:17;;;;;;;2.88;2.40;;;;;;;;;;4993243;28;21039;-74
2023/05/15 10:42:48;;;;;;;2.42;2.30;;;;;;;;;;5010512;28;20219;-75
2023/05/15 10:45:15;;;;;;;2.50;2.30;;;;;;;;;;5026180;28;20315;-75
2023/05/15 10:47:44;;;;;;;2.17;2.00;;;;;;;;;;5043817;28;20321;-75
2023/05/15 10:50:11;;;;;;;2.47;2.28;;;;;;;;;;5010744;28;21164;-76
2023/05/15 10:52:37;;;;;;;3.55;2.40;;;;;;;;;;4994638;28;20257;-76
2023/05/15 10:55:06;;;;;;;2.50;2.30;;;;;;;;;;4978002;28;21127;-74
2023/05/15 10:57:39;;;;;;;2.50;2.30;;;;;;;;;;5044094;28;20385;-73
2023/05/15 11:00:22;;;;;;;2.95;2.58;;;;;;;;;;5044377;28;20226;-75
2023/05/15 11:02:48;;;;;;;6.05;2.50;;;;;;;;;;5031980;28;20238;-74
2023/05/15 11:05:14;;;;;;;2.42;2.20;;;;;;;;;;5008133;28;20290;-74
2023/05/15 11:07:41;;;;;;;3.20;2.70;;;;;;;;;;5011169;28;20248;-74
2023/05/15 11:10:31;;;;;;;2.85;2.53;;;;;;;;;;5009655;28;20680;-74
2023/05/15 11:12:57;;;;;;;2.72;2.35;;;;;;;;;;5042956;28;20813;-75
2023/05/15 11:15:23;;;;;;;2.30;2.10;;;;;;;;;;5009574;28;20721;-73
2023/05/15 11:18:09;;;;;;;3.15;2.15;;;;;;;;;;5027208;28;20238;-74
2023/05/15 11:20:43;;;;;;;2.47;2.25;;;;;;;;;;5010571;28;20219;-73
2023/05/15 11:23:09;;;;;;;4.20;2.47;;;;;;;;;;5024500;28;20588;-74
2023/05/15 11:25:35;;;;;;;2.40;2.20;;;;;;;;;;5026322;28;20234;-74
2023/05/15 11:28:04;;;;;;;2.13;1.92;;;;;;;;;;5044314;28;20226;-74
2023/05/15 11:30:40;;;;;;;3.45;2.38;;;;;;;;;;5009963;28;20227;-74
2023/05/15 11:33:19;;;;;;;3.63;2.35;;;;;;;;;;5009962;28;20321;-73
2023/05/15 11:35:46;;;;;;;2.55;2.28;;;;;;;;;;4993458;28;20317;-77
2023/05/15 11:38:26;;;;;;;2.22;1.90;;;;;;;;;;5025760;28;20216;-74
2023/05/15 11:40:57;;;;;;;2.25;1.90;;;;;;;;;;5025630;28;20246;-74
2023/05/15 11:43:33;;;;;;;2.33;2.13;;;;;;;;;;5024422;28;20310;-73
2023/05/15 11:46:04;;;;;;;2.70;2.05;;;;;;;;;;5041354;28;20805;-75
2023/05/15 11:48:38;;;;;;;2.55;2.05;;;;;;;;;;5007467;28;20719;-74
2023/05/15 11:51:25;;;;;;;2.33;2.10;;;;;;;;;;5008176;28;21743;-73
2023/05/15 11:53:52;;;;;;;4.05;2.40;;;;;;;;;;4991603;28;20313;-74
2023/05/15 11:56:27;;;;;;;2.55;2.00;;;;;;;;;;5006953;28;20306;-74
2023/05/15 11:58:56;;;;;;;2.58;2.30;;;;;;;;;;5024366;28;20302;-74
2023/05/15 12:01:28;;;;;;;2.60;2.25;;;;;;;;;;5023861;28;20226;-74
2023/05/15 12:03:55;;;;;;;3.33;2.28;;;;;;;;;;5009528;28;20227;-76
2023/05/15 12:06:26;;;;;;;2.67;2.47;;;;;;;;;;5039001;28;20277;-75
2023/05/15 12:08:51;;;;;;;2.30;2.20;;;;;;;;;;5025450;28;20584;-75
2023/05/15 12:11:23;;;;;;;2.85;2.20;;;;;;;;;;4975369;28;20215;-76
2023/05/15 12:13:55;;;;;;;3.47;2.45;;;;;;;;;;4994006;28;20231;-75
2023/05/15 12:16:31;;;;;;;2.40;2.28;;;;;;;;;;5023990;28;20328;-74
2023/05/15 12:18:57;;;;;;;2.10;2.00;;;;;;;;;;5008463;28;20255;-75
2023/05/15 12:21:25;;;;;;;2.88;2.50;;;;;;;;;;5008116;28;20245;-74
2023/05/15 12:23:55;;;;;;;2.58;2.38;;;;;;;;;;5005948;28;20632;-74
2023/05/15 12:26:23;;;;;;;2.60;2.40;;;;;;;;;;4990637;28;20677;-74
2023/05/15 12:28:53;;;;;;;2.90;2.70;;;;;;;;;;5009658;28;21080;-73
2023/05/15 12:31:26;;;;;;;3.03;2.72;;;;;;;;;;4993705;28;20223;-76
2023/05/15 12:33:51;;;;;;;6.00;2.78;;;;;;;;;;5026090;28;20215;-77
2023/05/15 12:36:21;;;;;;;2.63;2.42;;;;;;;;;;5004874;28;20724;-74
2023/05/15 12:38:47;;;;;;;2.80;2.50;;;;;;;;;;5047579;28;20251;-74
2023/05/15 12:41:16;;;;;;;3.03;2.35;;;;;;;;;;5027558;28;20254;-74
2023/05/15 12:43:44;;;;;;;3.17;2.50;;;;;;;;;;5009726;28;20236;-74
2023/05/15 12:46:12;;;;;;;3.20;2.80;;;;;;;;;;5023476;28;20708;-73
2023/05/15 12:48:38;;;;;;;2.55;2.35;;;;;;;;;;4990207;28;20238;-74
2023/05/15 12:51:09;;;;;;;2.90;2.70;;;;;;;;;;4991057;28;20837;-74
2023/05/15 12:53:35;;;;;;;2.70;2.50;;;;;;;;;;4990283;28;20215;-74
2023/05/15 12:56:00;;;;;;;2.95;2.75;;;;;;;;;;5038390;28;20750;-74
2023/05/15 12:58:31;;;;;;;3.03;2.50;;;;;;;;;;4989790;28;20353;-75
2023/05/15 13:01:01;;;;;;;4.30;2.78;;;;;;;;;;5005818;28;20709;-74
2023/05/15 13:03:27;;;;;;;2.83;2.60;;;;;;;;;;4990056;28;20606;-75
2023/05/15 13:05:55;;;;;;;5.88;5.38;;;;;;;;;;5040824;28;20223;-74
2023/05/15 13:08:25;;;;;;;7.65;6.95;;;;;;;;;;5007764;28;20232;-74
2023/05/15 13:10:59;;;;;;;7.88;7.28;;;;;;;;;;4998062;28;20231;-74
2023/05/15 13:13:44;;;;;;;9.65;8.70;;;;;;;;;;5039357;28;20249;-74
2023/05/15 13:16:31;;;;;;;9.45;8.57;;;;;;;;;;5005809;28;20708;-74
2023/05/15 13:18:59;;;;;;;9.27;8.48;;;;;;;;;;5022689;28;20250;-75
2023/05/15 13:21:30;;;;;;;9.15;8.27;;;;;;;;;;5011445;28;20688;-75
2023/05/15 13:23:58;;;;;;;8.32;7.53;;;;;;;;;;4993133;28;20228;-74
2023/05/15 13:26:23;;;;;;;7.63;6.93;;;;;;;;;;5020968;28;20607;-75
2023/05/15 13:28:49;;;;;;;7.78;7.05;;;;;;;;;;5006609;28;20227;-74
2023/05/15 13:31:17;;;;;;;8.02;7.43;;;;;;;;;;4990030;28;20223;-73
2023/05/15 13:33:45;;;;;;;7.85;7.07;;;;;;;;;;5006958;28;20222;-73
2023/05/15 13:36:10;;;;;;;9.02;8.23;;;;;;;;;;5011475;28;21180;-74
2023/05/15 13:38:40;;;;;;;9.98;9.07;;;;;;;;;;5007937;28;20604;-74
2023/05/15 13:41:06;;;;;;;11.70;10.60;;;;;;;;;;5006369;28;20222;-75
2023/05/15 13:43:34;;;;;;;11.63;10.63;;;;;;;;;;5041187;28;20354;-77
2023/05/15 13:45:59;;;;;;;11.77;10.60;;;;;;;;;;5005363;28;20230;-75
2023/05/15 13:48:25;;;;;;;10.85;9.95;;;;;;;;;;5021040;28;20223;-73
2023/05/15 13:50:55;;;;;;;11.80;10.77;;;;;;;;;;5041190;28;20226;-73
2023/05/15 13:53:22;;;;;;;12.45;11.23;;;;;;;;;;4989355;28;20230;-73
2023/05/15 13:55:53;;;;;;;7.32;6.72;;;;;;;;;;5022910;28;20491;-76
2023/05/15 13:58:18;;;;;;;5.05;4.55;;;;;;;;;;5011588;28;21184;-75
2023/05/15 14:00:47;;;;;;;3.53;3.15;;;;;;;;;;5006972;28;20226;-77
2023/05/15 14:03:15;;;;;;;3.28;2.97;;;;;;;;;;5006446;28;20223;-74
2023/05/15 14:05:43;;;;;;;3.30;3.00;;;;;;;;;;5007285;28;20250;-73
2023/05/15 14:08:09;;;;;;;3.58;3.03;;;;;;;;;;5038786;28;20223;-76
2023/05/15 14:10:38;;;;;;;2.75;2.55;;;;;;;;;;5022666;28;20223;-75
2023/05/15 14:13:06;;;;;;;3.50;2.88;;;;;;;;;;5006146;28;20483;-76
2023/05/15 14:15:32;;;;;;;3.05;2.85;;;;;;;;;;5005258;28;20223;-74
2023/05/15 14:17:57;;;;;;;3.33;3.03;;;;;;;;;;5006932;28;20243;-76
2023/05/15 14:20:27;;;;;;;2.95;2.70;;;;;;;;;;5022546;28;20591;-75
2023/05/15 14:22:53;;;;;;;2.83;2.60;;;;;;;;;;4990558;28;20227;-75
2023/05/15 14:25:23;;;;;;;3.33;2.97;;;;;;;;;;5022143;28;20223;-75
2023/05/15 14:27:48;;;;;;;3.50;2.55;;;;;;;;;;4990715;28;20215;-75
2023/05/15 14:30:14;;;;;;;3.67;2.90;;;;;;;;;;5007097;28;20226;-75
2023/05/15 14:32:45;;;;;;;2.60;2.42;;;;;;;;;;5007925;28;20230;-75
2023/05/15 14:35:14;;;;;;;3.25;2.92;;;;;;;;;;5023251;28;20601;-76
2023/05/15 14:37:42;;;;;;;3.08;2.45;;;;;;;;;;5007685;28;20226;-74
2023/05/15 14:40:11;;;;;;;2.70;2.50;;;;;;;;;;5006770;28;20227;-75
2023/05/15 14:42:39;;;;;;;2.38;2.20;;;;;;;;;;5005033;28;21529;-75
2023/05/15 14:45:05;;;;;;;3.08;2.42;;;;;;;;;;5005923;28;20322;-74
2023/05/15 14:47:30;;;;;;;2.70;2.50;;;;;;;;;;5020907;28;20223;-75
2023/05/15 14:49:56;;;;;;;2.55;2.35;;;;;;;;;;4989814;28;20599;-75
2023/05/15 14:52:22;;;;;;;2.22;2.00;;;;;;;;;;5006469;28;20222;-75